Time;durP1;ratioP1;P1;durP2;ratioP2;P2;SDS_P1;SDS_P2;PMS_P1;PMS_P2;Temp;Humidity;BMP_temperature;BMP_pressure;BME280_temperature;BME280_humidity;BME280_pressure;Samples;Min_cycle;Max_cycle;Signal;HPM_P1;HPM_P2
2023/10/07 00:00:38;;;;;;;17.70;5.43;;;17.00;99.90;;;;;;4953829;28;20043;-83
2023/10/07 00:03:08;;;;;;;17.50;5.45;;;17.00;99.90;;;;;;4958602;28;20118;-84
2023/10/07 00:05:42;;;;;;;20.63;5.43;;;17.00;99.90;;;;;;4973444;28;20265;-84
2023/10/07 00:08:12;;;;;;;14.93;5.80;;;17.00;99.90;;;;;;4957823;28;20548;-83
2023/10/07 00:10:39;;;;;;;17.95;5.78;;;17.00;99.90;;;;;;4953922;28;20372;-83
2023/10/07 00:13:09;;;;;;;17.88;5.22;;;17.00;99.90;;;;;;4944813;29;20078;-83
2023/10/07 00:15:42;;;;;;;11.80;5.25;;;17.00;99.90;;;;;;4972497;28;20054;-83
2023/10/07 00:18:13;;;;;;;14.18;5.70;;;17.00;99.90;;;;;;4953427;28;20113;-83
2023/10/07 00:20:48;;;;;;;18.73;5.28;;;17.00;99.90;;;;;;4968179;28;20125;-84
2023/10/07 00:23:22;;;;;;;13.10;5.22;;;17.00;99.90;;;;;;4953308;28;20039;-84
2023/10/07 00:25:52;;;;;;;17.38;5.10;;;17.00;99.90;;;;;;4968594;28;20058;-84
2023/10/07 00:28:24;;;;;;;15.00;5.32;;;17.00;99.90;;;;;;4962959;28;20076;-82
2023/10/07 00:30:50;;;;;;;;;;;17.00;99.90;;;;;;4973180;28;20146;-83
2023/10/07 00:33:26;;;;;;;13.20;5.53;;;17.00;99.90;;;;;;4972260;28;20001;-83
2023/10/07 00:35:53;;;;;;;15.93;5.55;;;17.00;99.90;;;;;;4972954;28;20494;-83
2023/10/07 00:38:23;;;;;;;14.38;4.95;;;17.00;99.90;;;;;;4956772;28;20054;-84
2023/10/07 00:40:54;;;;;;;16.77;5.22;;;17.00;99.90;;;;;;4961110;28;20051;-83
2023/10/07 00:43:27;;;;;;;17.13;5.30;;;17.00;99.90;;;;;;4956016;28;20152;-83
2023/10/07 00:46:20;;;;;;;17.58;6.00;;;17.00;99.90;;;;;;4973130;28;20146;-83
2023/10/07 00:48:56;;;;;;;15.68;5.43;;;17.00;99.90;;;;;;4961911;28;20118;-83
2023/10/07 00:51:33;;;;;;;14.38;5.18;;;17.00;99.90;;;;;;4971028;28;20038;-82
2023/10/07 00:54:15;;;;;;;15.32;5.65;;;17.00;99.90;;;;;;4970932;28;20050;-83
2023/10/07 00:56:44;;;;;;;18.85;5.55;;;17.00;99.90;;;;;;4942494;28;20125;-84
2023/10/07 00:59:14;;;;;;;14.80;5.15;;;17.00;99.90;;;;;;4959340;28;20082;-84
2023/10/07 01:01:45;;;;;;;14.63;5.60;;;17.00;99.90;;;;;;4972618;28;20042;-84
2023/10/07 01:04:14;;;;;;;12.40;5.35;;;17.00;99.90;;;;;;4965832;28;20054;-83
2023/10/07 01:06:40;;;;;;;17.02;5.47;;;17.00;99.90;;;;;;4949900;28;20078;-84
2023/10/07 01:09:14;;;;;;;17.13;5.55;;;17.00;99.90;;;;;;4953603;28;20043;-84
2023/10/07 01:11:45;;;;;;;16.02;5.07;;;17.00;99.90;;;;;;4946219;28;20042;-83
2023/10/07 01:14:12;;;;;;;17.58;5.95;;;17.00;99.90;;;;;;4963496;28;20054;-83
2023/10/07 01:16:44;;;;;;;13.45;5.28;;;17.00;99.90;;;;;;4967715;28;20129;-83
2023/10/07 01:19:19;;;;;;;17.63;5.70;;;17.00;99.90;;;;;;4972354;28;20295;-85
2023/10/07 01:22:05;;;;;;;18.20;5.28;;;17.00;99.90;;;;;;4972460;28;20055;-84
2023/10/07 01:27:18;;;;;;;13.40;5.03;;;16.90;99.90;;;;;;4963370;28;20039;-83
2023/10/07 01:29:48;;;;;;;15.63;5.57;;;16.90;99.90;;;;;;4947640;28;20040;-83
2023/10/07 01:32:16;;;;;;;18.15;5.93;;;16.90;99.90;;;;;;4952799;28;20039;-83
2023/10/07 01:34:47;;;;;;;17.42;6.32;;;16.90;99.90;;;;;;4971736;28;20077;-84
2023/10/07 01:37:15;;;;;;;18.42;6.70;;;16.90;99.90;;;;;;4956055;28;20066;-83
2023/10/07 01:39:43;;;;;;;15.32;6.93;;;16.90;99.90;;;;;;4955812;28;20058;-85
2023/10/07 01:42:54;;;;;;;17.75;6.95;;;16.80;99.90;;;;;;4971651;28;20055;-82
2023/10/07 01:45:01;;;;;;;17.15;7.18;;;16.80;99.90;;;;;;4967727;28;20055;-82
2023/10/07 01:47:29;;;;;;;15.48;6.50;;;16.70;99.90;;;;;;4971526;28;20042;-83
2023/10/07 01:49:57;;;;;;;15.88;6.90;;;16.70;99.90;;;;;;4973266;28;20097;-84
2023/10/07 01:52:32;;;;;;;20.45;6.78;;;16.70;99.90;;;;;;4971437;28;20066;-84
2023/10/07 01:55:08;;;;;;;19.48;6.78;;;16.70;99.90;;;;;;4954977;28;20083;-84
2023/10/07 01:57:34;;;;;;;17.95;6.75;;;16.70;99.90;;;;;;4986336;28;20395;-84
2023/10/07 02:00:05;;;;;;;13.15;7.28;;;16.70;99.90;;;;;;4970587;28;20046;-83
2023/10/07 02:02:31;;;;;;;18.20;7.05;;;16.70;99.90;;;;;;4955138;28;20058;-83
2023/10/07 02:04:57;;;;;;;22.08;7.20;;;16.70;99.90;;;;;;4972294;28;20482;-83
2023/10/07 02:07:23;;;;;;;16.23;6.90;;;16.70;99.90;;;;;;4955346;28;20043;-83
2023/10/07 02:09:48;;;;;;;21.13;6.70;;;16.70;99.90;;;;;;4975515;28;20038;-84
2023/10/07 02:12:18;;;;;;;19.80;7.15;;;16.80;99.90;;;;;;4975160;28;20498;-84
2023/10/07 02:14:44;;;;;;;16.77;6.63;;;16.70;99.90;;;;;;4975912;28;20082;-83
2023/10/07 02:17:14;;;;;;;22.55;7.07;;;16.80;99.90;;;;;;4943398;28;20050;-84
2023/10/07 02:19:41;;;;;;;14.32;6.43;;;16.80;99.90;;;;;;4972174;28;20054;-83
2023/10/07 02:22:09;;;;;;;16.45;6.57;;;16.80;99.90;;;;;;4955585;28;20039;-83
2023/10/07 02:24:36;;;;;;;15.45;6.68;;;16.80;99.90;;;;;;4956506;28;20042;-84
2023/10/07 02:27:06;;;;;;;13.88;5.95;;;16.90;99.90;;;;;;4958939;28;20035;-84
2023/10/07 02:29:33;;;;;;;16.23;6.15;;;16.90;99.90;;;;;;4974854;28;20039;-84
2023/10/07 02:32:14;;;;;;;16.20;6.13;;;17.00;99.90;;;;;;4959024;28;20070;-83
2023/10/07 02:34:53;;;;;;;19.13;6.28;;;17.00;99.90;;;;;;4975091;28;20039;-83
2023/10/07 02:37:25;;;;;;;17.20;6.22;;;17.00;99.90;;;;;;4989274;28;20475;-84
2023/10/07 02:39:56;;;;;;;14.43;5.95;;;17.00;99.90;;;;;;4956173;28;20059;-82
2023/10/07 02:42:24;;;;;;;16.20;6.25;;;17.00;99.90;;;;;;4957725;28;20505;-83
2023/10/07 02:45:00;;;;;;;17.63;6.25;;;17.00;99.90;;;;;;4975158;28;20043;-84
2023/10/07 02:47:27;;;;;;;15.52;6.03;;;17.10;99.90;;;;;;4975061;28;20399;-83
2023/10/07 02:49:52;;;;;;;14.77;6.53;;;17.10;99.90;;;;;;4958949;28;20038;-84
2023/10/07 02:52:19;;;;;;;18.35;6.28;;;17.10;99.90;;;;;;4957751;28;20528;-83
2023/10/07 02:54:45;;;;;;;18.90;6.03;;;17.10;99.90;;;;;;4959132;28;20446;-84
2023/10/07 02:57:24;;;;;;;14.13;6.20;;;17.10;99.90;;;;;;4969933;28;21303;-84
2023/10/07 03:00:00;;;;;;;15.77;6.40;;;17.10;99.90;;;;;;4970463;28;20043;-85
2023/10/07 03:02:48;;;;;;;16.58;6.28;;;17.10;99.90;;;;;;4961416;28;20284;-84
2023/10/07 03:05:14;;;;;;;14.73;5.80;;;17.10;99.90;;;;;;4958809;28;20494;-83
2023/10/07 03:07:49;;;;;;;16.33;5.72;;;17.10;99.90;;;;;;4974701;28;20106;-84
2023/10/07 03:10:28;;;;;;;13.77;5.47;;;17.10;99.90;;;;;;4974610;28;20047;-84
2023/10/07 03:12:56;;;;;;;12.77;5.55;;;17.10;99.90;;;;;;4974678;28;20065;-84
2023/10/07 03:15:39;;;;;;;16.90;5.45;;;17.10;99.90;;;;;;4958738;28;20390;-84
2023/10/07 03:18:21;;;;;;;12.13;5.65;;;17.10;99.90;;;;;;4975901;28;20105;-83
2023/10/07 03:20:59;;;;;;;17.98;6.00;;;17.10;99.90;;;;;;4958055;28;20073;-84
2023/10/07 03:23:26;;;;;;;17.60;6.45;;;17.10;99.90;;;;;;4974287;28;20887;-82
2023/10/07 03:28:37;;;;;;;15.23;6.22;;;17.20;99.90;;;;;;4974533;28;20395;-83
2023/10/07 03:31:10;;;;;;;15.07;5.65;;;17.20;99.90;;;;;;4966488;28;20043;-83
2023/10/07 03:41:55;;;;;;;13.88;5.57;;;17.20;99.90;;;;;;4974763;28;20102;-83
2023/10/07 03:44:31;;;;;;;14.35;5.35;;;17.20;99.90;;;;;;4972487;28;20511;-84
2023/10/07 03:46:57;;;;;;;15.57;6.03;;;17.20;99.90;;;;;;4973368;28;20118;-84
2023/10/07 03:49:33;;;;;;;14.80;5.50;;;17.20;99.90;;;;;;4952579;28;20076;-83
2023/10/07 03:52:07;;;;;;;10.65;4.72;;;17.20;99.90;;;;;;4973897;28;20105;-83
2023/10/07 03:54:34;;;;;;;14.02;5.68;;;17.20;99.90;;;;;;4954595;29;20476;-82
2023/10/07 03:57:00;;;;;;;12.18;5.60;;;17.20;99.90;;;;;;4972138;28;20049;-83
2023/10/07 03:59:34;;;;;;;13.30;5.93;;;17.20;99.90;;;;;;4957710;28;20050;-84
2023/10/07 04:02:12;;;;;;;12.88;5.53;;;17.20;99.90;;;;;;4973074;28;20055;-83
2023/10/07 04:04:41;;;;;;;13.38;5.93;;;17.20;99.90;;;;;;4963303;28;20070;-84
2023/10/07 04:07:08;;;;;;;17.70;5.78;;;17.20;99.90;;;;;;4956773;28;20043;-82
2023/10/07 04:09:35;;;;;;;14.40;5.80;;;17.20;99.90;;;;;;4967385;28;20049;-84
2023/10/07 04:12:01;;;;;;;12.10;6.18;;;17.20;99.90;;;;;;4957291;28;20480;-82
2023/10/07 04:14:30;;;;;;;14.15;5.75;;;17.20;99.90;;;;;;4956037;28;20043;-83
2023/10/07 04:17:00;;;;;;;16.42;5.43;;;17.20;99.90;;;;;;4974268;28;20610;-82
2023/10/07 04:21:52;;;;;;;14.23;5.55;;;17.20;99.90;;;;;;4969461;28;20031;-83
2023/10/07 04:24:28;;;;;;;17.27;5.63;;;17.20;99.90;;;;;;4954448;28;20045;-83
2023/10/07 04:26:55;;;;;;;13.15;5.10;;;17.20;99.90;;;;;;4952292;28;20046;-83
2023/10/07 04:29:21;;;;;;;10.63;5.05;;;17.30;99.90;;;;;;4954411;28;20566;-83
2023/10/07 04:31:51;;;;;;;14.13;5.28;;;17.30;99.90;;;;;;4953128;28;20039;-83
2023/10/07 04:34:21;;;;;;;15.82;5.90;;;17.20;99.90;;;;;;4971743;28;20039;-84
2023/10/07 04:40:53;;;;;;;12.05;5.95;;;17.20;99.90;;;;;;4965485;28;20062;-84
2023/10/07 04:42:22;;;;;;;17.27;5.90;;;17.30;99.90;;;;;;4971749;28;20039;-83
2023/10/07 04:52:33;;;;;;;15.00;5.85;;;17.30;99.90;;;;;;4972574;28;20038;-84
2023/10/07 04:55:01;;;;;;;16.20;5.80;;;17.20;99.90;;;;;;4968010;28;20130;-84
2023/10/07 05:00:26;;;;;;;14.48;6.30;;;17.20;99.90;;;;;;4968701;28;20046;-83
2023/10/07 05:02:57;;;;;;;13.60;5.88;;;17.20;99.90;;;;;;4950252;28;20039;-83
2023/10/07 05:05:24;;;;;;;14.07;5.75;;;17.20;99.90;;;;;;4972349;28;20053;-83
2023/10/07 05:07:56;;;;;;;14.05;5.82;;;17.30;99.90;;;;;;4940603;28;20399;-83
2023/10/07 05:10:24;;;;;;;16.23;5.80;;;17.20;99.90;;;;;;4956596;28;20038;-83
2023/10/07 05:12:54;;;;;;;12.07;5.60;;;17.30;99.90;;;;;;4955809;28;20086;-83
2023/10/07 05:15:21;;;;;;;12.63;5.33;;;17.30;99.90;;;;;;4956738;28;21142;-82
2023/10/07 05:17:46;;;;;;;15.23;5.32;;;17.20;99.90;;;;;;4956964;28;20772;-83
2023/10/07 05:20:27;;;;;;;13.23;5.50;;;17.30;99.90;;;;;;4956377;28;20050;-84
2023/10/07 05:22:54;;;;;;;19.80;5.70;;;17.20;99.90;;;;;;4956204;28;20046;-84
2023/10/07 05:25:21;;;;;;;11.85;4.95;;;17.20;99.90;;;;;;4942302;29;20039;-83
2023/10/07 05:27:48;;;;;;;14.65;5.68;;;17.20;99.90;;;;;;4951418;28;20069;-82
2023/10/07 05:30:16;;;;;;;13.18;5.07;;;17.20;99.90;;;;;;4961551;28;20051;-84
2023/10/07 05:32:42;;;;;;;13.75;5.32;;;17.30;99.90;;;;;;4970367;28;20046;-83
2023/10/07 05:35:08;;;;;;;17.40;5.75;;;17.20;99.90;;;;;;4951426;28;20049;-84
2023/10/07 05:37:34;;;;;;;11.57;5.32;;;17.30;99.90;;;;;;4955486;28;20057;-84
2023/10/07 05:40:03;;;;;;;13.90;5.30;;;17.20;99.90;;;;;;4955188;28;20069;-85
2023/10/07 05:42:29;;;;;;;12.18;5.13;;;17.30;99.90;;;;;;4972947;28;20039;-85
2023/10/07 05:44:54;;;;;;;13.02;5.50;;;17.30;99.90;;;;;;4955073;28;20047;-82
2023/10/07 05:47:21;;;;;;;14.32;6.47;;;17.20;99.90;;;;;;4987278;28;20109;-84
2023/10/07 05:49:46;;;;;;;15.70;5.40;;;17.20;99.90;;;;;;4952674;29;20047;-85
2023/10/07 05:52:12;;;;;;;14.32;5.38;;;17.20;99.90;;;;;;4950722;28;20111;-85
2023/10/07 05:54:38;;;;;;;12.73;5.60;;;17.20;99.90;;;;;;4971887;28;20043;-84
2023/10/07 05:57:05;;;;;;;14.02;5.40;;;17.30;99.90;;;;;;4947531;29;20043;-85
2023/10/07 05:59:34;;;;;;;13.85;5.60;;;17.20;99.90;;;;;;4950660;28;20061;-84
2023/10/07 06:02:05;;;;;;;15.00;5.75;;;17.20;99.90;;;;;;4955989;28;20051;-84
2023/10/07 06:04:31;;;;;;;;;;;17.20;99.90;;;;;;4951283;29;20049;-87
2023/10/07 06:06:57;;;;;;;13.95;5.55;;;17.20;99.90;;;;;;4936414;29;19926;-86
2023/10/07 06:09:23;;;;;;;13.10;5.40;;;17.20;99.90;;;;;;4936632;29;20039;-84
2023/10/07 06:11:49;;;;;;;18.45;6.53;;;17.20;99.90;;;;;;4970242;28;20035;-83
2023/10/07 06:14:18;;;;;;;14.35;5.35;;;17.20;99.90;;;;;;4955433;28;20096;-84
2023/10/07 06:16:44;;;;;;;14.38;5.53;;;17.30;99.90;;;;;;4965589;28;20109;-83
2023/10/07 06:19:13;;;;;;;12.25;5.60;;;17.20;99.90;;;;;;4938373;28;20051;-84
2023/10/07 06:21:50;;;;;;;16.15;6.05;;;17.20;99.90;;;;;;4966912;28;20414;-82
2023/10/07 06:24:21;;;;;;;18.73;5.80;;;17.20;99.90;;;;;;4971877;28;20061;-84
2023/10/07 06:26:48;;;;;;;15.45;6.28;;;17.30;99.90;;;;;;4971429;28;20054;-83
2023/10/07 06:29:18;;;;;;;14.98;6.50;;;17.20;99.90;;;;;;4952219;28;20038;-83
2023/10/07 06:31:54;;;;;;;15.63;5.47;;;17.20;99.90;;;;;;4969721;28;20038;-82
2023/10/07 06:34:25;;;;;;;14.27;5.57;;;17.20;99.90;;;;;;4955163;28;20039;-83
2023/10/07 06:36:52;;;;;;;13.02;5.50;;;17.20;99.90;;;;;;4971361;28;20058;-84
2023/10/07 06:39:27;;;;;;;11.35;5.32;;;17.20;99.90;;;;;;4971209;28;20050;-82
2023/10/07 06:41:55;;;;;;;18.90;6.68;;;17.20;99.90;;;;;;4972183;28;20082;-83
2023/10/07 06:44:23;;;;;;;18.70;6.03;;;17.20;99.90;;;;;;4970117;28;20050;-83
2023/10/07 06:46:55;;;;;;;14.23;5.45;;;17.20;99.90;;;;;;4971108;28;20661;-83
2023/10/07 06:49:22;;;;;;;14.52;5.45;;;17.30;99.90;;;;;;4955738;28;20043;-83
2023/10/07 06:51:57;;;;;;;15.73;6.18;;;17.20;99.90;;;;;;4971107;28;20049;-82
2023/10/07 06:54:42;;;;;;;13.38;5.15;;;17.30;99.90;;;;;;4965370;28;20070;-83
2023/10/07 06:57:11;;;;;;;12.63;5.28;;;17.30;99.90;;;;;;4957377;28;20503;-83
2023/10/07 06:59:53;;;;;;;13.00;5.80;;;17.30;99.90;;;;;;4974968;28;20035;-82
2023/10/07 07:02:34;;;;;;;15.23;5.50;;;17.30;99.90;;;;;;4973998;28;20046;-83
2023/10/07 07:05:24;;;;;;;15.15;5.53;;;17.30;99.90;;;;;;4957939;28;20050;-83
2023/10/07 07:07:52;;;;;;;14.48;5.55;;;17.30;99.90;;;;;;4957477;28;20046;-82
2023/10/07 07:10:28;;;;;;;13.77;5.28;;;17.30;99.90;;;;;;4960222;28;20066;-83
2023/10/07 07:13:12;;;;;;;12.70;5.80;;;17.40;99.90;;;;;;4943805;28;20042;-82
2023/10/07 07:16:06;;;;;;;14.27;5.38;;;17.30;99.90;;;;;;4966195;28;20548;-82
2023/10/07 07:18:44;;;;;;;14.77;5.78;;;17.30;99.90;;;;;;4941709;28;20399;-83
2023/10/07 07:23:54;;;;;;;13.23;5.25;;;17.40;99.90;;;;;;4973673;28;20046;-82
2023/10/07 07:26:39;;;;;;;14.15;5.60;;;17.40;99.90;;;;;;4977012;28;20043;-83
2023/10/07 07:29:08;;;;;;;14.02;6.13;;;17.40;99.90;;;;;;4993561;28;20494;-82
2023/10/07 07:31:59;;;;;;;14.13;5.50;;;17.50;99.90;;;;;;4958007;28;20475;-82
2023/10/07 07:34:31;;;;;;;14.20;5.82;;;17.50;99.90;;;;;;4964599;28;20046;-82
2023/10/07 07:37:03;;;;;;;12.25;5.00;;;17.60;99.90;;;;;;4972797;28;20055;-82
2023/10/07 07:39:32;;;;;;;14.00;5.77;;;17.60;99.90;;;;;;4975394;28;20043;-82
2023/10/07 07:42:15;;;;;;;12.73;5.22;;;17.60;99.90;;;;;;4973913;28;20774;-83
2023/10/07 07:44:55;;;;;;;10.63;4.75;;;17.60;99.90;;;;;;4972323;28;20043;-82
2023/10/07 07:47:21;;;;;;;14.00;5.57;;;17.70;99.90;;;;;;4955160;28;20043;-83
2023/10/07 07:49:48;;;;;;;13.35;5.50;;;17.70;99.90;;;;;;4957546;28;20471;-84
2023/10/07 07:52:15;;;;;;;9.52;4.97;;;17.70;99.90;;;;;;4957643;28;20043;-83
2023/10/07 07:54:44;;;;;;;16.08;5.65;;;17.70;99.90;;;;;;4974246;28;20039;-83
2023/10/07 07:57:12;;;;;;;12.70;5.32;;;17.70;99.90;;;;;;4946518;28;20067;-82
2023/10/07 07:59:38;;;;;;;14.30;5.68;;;17.80;99.90;;;;;;4957438;28;20132;-83
2023/10/07 08:04:46;;;;;;;13.95;5.50;;;17.80;99.90;;;;;;4973946;28;20051;-83
2023/10/07 08:07:24;;;;;;;14.70;5.82;;;17.80;99.90;;;;;;4957306;28;20039;-82
2023/10/07 08:09:55;;;;;;;16.58;5.50;;;17.90;99.90;;;;;;4976593;28;20042;-85
2023/10/07 08:12:28;;;;;;;11.68;5.30;;;17.90;99.90;;;;;;4959411;28;20043;-82
2023/10/07 08:14:58;;;;;;;12.73;5.47;;;17.90;99.90;;;;;;4943169;28;20569;-83
2023/10/07 08:17:27;;;;;;;13.13;5.85;;;17.90;99.90;;;;;;4973880;28;20092;-83
2023/10/07 08:19:54;;;;;;;11.77;5.05;;;18.00;99.90;;;;;;4941844;28;20035;-83
2023/10/07 08:22:20;;;;;;;12.00;5.28;;;18.00;99.90;;;;;;4957060;28;20042;-83
2023/10/07 08:24:47;;;;;;;16.23;4.90;;;18.10;99.90;;;;;;4957366;28;20105;-82
2023/10/07 08:30:06;;;;;;;14.32;5.03;;;18.10;99.90;;;;;;4953070;28;20046;-82
2023/10/07 08:32:37;;;;;;;14.00;5.25;;;18.10;99.90;;;;;;4963184;28;20035;-84
2023/10/07 08:35:17;;;;;;;16.13;5.10;;;18.10;99.90;;;;;;4952577;28;20098;-83
2023/10/07 08:37:48;;;;;;;11.98;5.30;;;18.10;99.90;;;;;;4945033;28;20046;-83
2023/10/07 08:40:25;;;;;;;11.05;5.15;;;18.10;99.90;;;;;;4956858;28;20075;-83
2023/10/07 08:42:55;;;;;;;8.85;4.82;;;18.10;99.90;;;;;;4966557;28;20109;-82
2023/10/07 08:45:25;;;;;;;14.07;5.28;;;18.10;99.90;;;;;;4973273;28;20050;-83
2023/10/07 08:48:16;;;;;;;16.60;5.43;;;18.10;99.90;;;;;;4950973;28;20055;-83
2023/10/07 08:50:55;;;;;;;13.03;4.97;;;18.10;99.90;;;;;;4966780;28;20061;-82
2023/10/07 08:53:23;;;;;;;12.27;4.68;;;18.10;99.90;;;;;;4956698;28;20282;-84
2023/10/07 08:55:53;;;;;;;10.77;4.90;;;18.10;99.90;;;;;;4956578;28;20554;-83
2023/10/07 08:58:22;;;;;;;16.02;5.20;;;18.20;99.90;;;;;;4972812;28;20035;-84
2023/10/07 09:00:50;;;;;;;10.88;4.70;;;18.20;99.90;;;;;;4970944;28;20078;-82
2023/10/07 09:03:19;;;;;;;13.18;4.93;;;18.30;99.90;;;;;;4970175;28;20101;-84
2023/10/07 09:05:48;;;;;;;19.35;6.20;;;18.30;99.90;;;;;;4952761;28;20047;-83
2023/10/07 09:08:15;;;;;;;14.75;5.15;;;18.30;99.90;;;;;;4939879;28;20093;-82
2023/10/07 09:10:45;;;;;;;14.80;4.75;;;18.30;99.90;;;;;;4952869;28;20039;-83
2023/10/07 09:13:28;;;;;;;14.98;5.15;;;18.30;99.90;;;;;;4972616;28;20517;-83
2023/10/07 09:15:59;;;;;;;13.77;5.30;;;18.30;99.90;;;;;;4972793;28;20050;-83
2023/10/07 09:18:37;;;;;;;12.93;4.90;;;18.30;99.90;;;;;;4956421;28;20046;-83
2023/10/07 09:21:09;;;;;;;14.27;6.13;;;18.40;99.90;;;;;;4956402;28;20318;-83
2023/10/07 09:23:43;;;;;;;11.13;4.68;;;18.30;99.90;;;;;;4956635;28;20146;-84
2023/10/07 09:28:58;;;;;;;12.85;5.65;;;18.30;99.90;;;;;;4972198;28;20046;-84
2023/10/07 09:31:27;;;;;;;12.73;5.30;;;18.30;99.90;;;;;;4972533;28;20170;-83
2023/10/07 09:34:01;;;;;;;15.13;5.15;;;18.30;99.90;;;;;;4971881;28;20045;-82
2023/10/07 09:39:14;;;;;;;11.77;4.75;;;18.30;99.90;;;;;;4972547;28;20047;-83
2023/10/07 09:41:43;;;;;;;15.00;5.18;;;18.30;99.90;;;;;;4971957;28;20141;-83
2023/10/07 09:44:27;;;;;;;12.07;5.25;;;18.30;99.90;;;;;;4972215;28;20137;-84
2023/10/07 09:46:53;;;;;;;12.60;5.20;;;18.30;99.90;;;;;;4956382;28;20069;-83
2023/10/07 09:49:20;;;;;;;14.85;5.40;;;18.30;99.90;;;;;;4955994;28;20526;-81
2023/10/07 09:52:02;;;;;;;15.10;5.63;;;18.30;99.90;;;;;;4937419;28;20049;-83
2023/10/07 09:54:37;;;;;;;;;;;18.30;99.90;;;;;;4989012;28;20138;-83
2023/10/07 09:57:22;;;;;;;13.25;5.43;;;18.30;99.90;;;;;;4972302;28;19925;-83
2023/10/07 09:59:51;;;;;;;15.35;5.90;;;18.30;99.90;;;;;;4956011;28;20047;-83
2023/10/07 10:02:44;;;;;;;14.95;4.65;;;18.30;99.90;;;;;;4971281;28;20658;-84
2023/10/07 10:05:12;;;;;;;13.93;5.32;;;18.30;99.90;;;;;;4971563;28;20047;-83
2023/10/07 10:08:10;;;;;;;14.75;5.30;;;18.30;99.90;;;;;;4971582;28;20093;-84
2023/10/07 10:10:44;;;;;;;12.50;4.65;;;18.40;99.90;;;;;;4967805;28;20126;-82
2023/10/07 10:13:28;;;;;;;15.27;5.03;;;18.40;99.90;;;;;;4930329;28;20073;-83
2023/10/07 10:16:00;;;;;;;13.15;5.13;;;18.50;99.90;;;;;;4971079;28;20045;-83
2023/10/07 10:18:38;;;;;;;13.50;5.07;;;18.60;99.90;;;;;;4970801;28;20174;-83
2023/10/07 10:21:09;;;;;;;12.38;4.70;;;18.60;99.90;;;;;;4970961;28;20077;-83
2023/10/07 10:23:37;;;;;;;17.35;5.80;;;18.60;99.90;;;;;;4954177;28;20042;-83
2023/10/07 10:26:24;;;;;;;11.65;5.18;;;18.70;99.90;;;;;;4969426;28;20053;-83
2023/10/07 10:29:00;;;;;;;14.13;5.07;;;18.70;99.90;;;;;;4941499;28;20048;-83
2023/10/07 10:31:36;;;;;;;12.82;4.80;;;18.70;99.90;;;;;;4962451;28;20113;-83
2023/10/07 10:34:08;;;;;;;15.63;4.85;;;18.80;99.90;;;;;;4959154;28;20065;-83
2023/10/07 10:36:38;;;;;;;16.70;4.90;;;18.80;99.90;;;;;;4974971;28;20403;-84
2023/10/07 10:39:18;;;;;;;12.13;5.00;;;18.90;99.90;;;;;;4972640;28;20386;-83
2023/10/07 10:41:45;;;;;;;14.02;4.68;;;19.10;99.90;;;;;;4955254;29;20055;-84
2023/10/07 10:44:11;;;;;;;13.45;5.28;;;19.30;99.90;;;;;;4939632;29;20047;-83
2023/10/07 10:46:45;;;;;;;14.15;5.38;;;19.40;99.90;;;;;;4971711;28;20075;-83
2023/10/07 10:49:20;;;;;;;13.40;4.95;;;19.40;99.90;;;;;;4975259;28;20051;-82
2023/10/07 10:51:48;;;;;;;12.48;4.60;;;19.40;99.90;;;;;;4959109;28;20066;-83
2023/10/07 10:54:15;;;;;;;14.57;5.30;;;19.30;99.90;;;;;;4957868;28;20054;-83
2023/10/07 10:56:49;;;;;;;11.80;4.53;;;19.30;99.90;;;;;;4972053;28;20050;-82
2023/10/07 10:59:16;;;;;;;14.10;5.15;;;19.30;99.90;;;;;;4952990;28;20046;-83
2023/10/07 11:01:45;;;;;;;14.30;5.05;;;19.30;99.90;;;;;;4952297;29;20051;-83
2023/10/07 11:04:15;;;;;;;11.13;4.50;;;19.20;99.90;;;;;;4953360;28;20078;-82
2023/10/07 11:06:41;;;;;;;13.88;4.95;;;19.30;99.90;;;;;;4960182;28;20158;-83
2023/10/07 11:09:09;;;;;;;16.88;5.60;;;19.30;99.90;;;;;;4956169;29;20086;-84
2023/10/07 11:11:35;;;;;;;13.98;5.15;;;19.30;99.90;;;;;;4975066;28;20042;-84
2023/10/07 11:14:09;;;;;;;12.38;5.22;;;19.30;99.90;;;;;;4975328;28;20113;-82
2023/10/07 11:16:49;;;;;;;11.73;5.13;;;19.30;99.90;;;;;;4959204;28;20133;-85
2023/10/07 11:19:15;;;;;;;13.32;5.10;;;19.20;99.90;;;;;;4975395;28;20061;-83
2023/10/07 11:21:44;;;;;;;11.73;4.57;;;19.20;99.90;;;;;;4974950;28;20057;-83
2023/10/07 11:24:21;;;;;;;14.55;4.75;;;19.10;99.90;;;;;;4974267;28;20046;-83
2023/10/07 11:26:49;;;;;;;15.15;5.35;;;19.10;99.90;;;;;;4958465;28;20047;-83
2023/10/07 11:29:15;;;;;;;15.40;5.22;;;19.10;99.90;;;;;;4958378;28;20555;-84
2023/10/07 11:31:41;;;;;;;12.38;4.97;;;19.20;99.90;;;;;;4960388;28;20046;-84
2023/10/07 11:34:10;;;;;;;13.93;5.60;;;19.20;99.90;;;;;;4985507;28;20047;-83
2023/10/07 11:36:46;;;;;;;14.25;5.13;;;19.20;99.90;;;;;;4959823;28;20054;-82
2023/10/07 11:39:15;;;;;;;14.40;4.97;;;19.20;99.90;;;;;;4958070;28;20049;-83
2023/10/07 11:41:44;;;;;;;13.15;5.22;;;19.20;99.90;;;;;;4958225;28;20059;-83
2023/10/07 11:44:09;;;;;;;13.07;5.65;;;19.20;99.90;;;;;;4958509;28;20367;-82
2023/10/07 11:46:41;;;;;;;15.15;5.15;;;19.10;99.90;;;;;;4974253;28;20515;-82
2023/10/07 11:49:08;;;;;;;11.60;5.10;;;19.10;99.90;;;;;;4958184;28;20085;-83
2023/10/07 11:51:34;;;;;;;14.88;5.28;;;19.10;99.90;;;;;;4968330;28;20031;-82
2023/10/07 11:54:00;;;;;;;12.38;5.05;;;19.00;99.90;;;;;;4956219;28;20403;-83
2023/10/07 11:56:27;;;;;;;11.85;4.95;;;19.00;99.90;;;;;;4934592;28;20135;-85
2023/10/07 11:58:54;;;;;;;15.65;5.30;;;19.00;99.90;;;;;;4944557;29;20051;-83
2023/10/07 12:01:21;;;;;;;9.63;4.72;;;18.90;99.90;;;;;;4967859;28;20062;-84
2023/10/07 12:03:48;;;;;;;11.52;5.80;;;18.90;99.90;;;;;;4954578;29;20053;-83
2023/10/07 12:06:15;;;;;;;12.13;5.00;;;18.90;99.90;;;;;;4967884;28;20067;-83
2023/10/07 12:08:41;;;;;;;14.15;5.30;;;18.80;99.90;;;;;;4967605;28;20039;-82
2023/10/07 12:11:08;;;;;;;11.13;4.75;;;18.80;99.90;;;;;;4958193;28;20043;-84
2023/10/07 12:13:35;;;;;;;14.88;5.53;;;18.80;99.90;;;;;;4965381;28;20043;-83
2023/10/07 12:16:00;;;;;;;14.73;6.13;;;18.80;99.90;;;;;;4954587;28;20110;-83
2023/10/07 12:18:26;;;;;;;14.15;5.30;;;18.90;99.90;;;;;;4957705;28;20082;-82
2023/10/07 12:20:55;;;;;;;14.57;4.97;;;19.00;99.90;;;;;;4947162;28;20039;-83
2023/10/07 12:23:21;;;;;;;15.88;5.28;;;19.10;99.90;;;;;;4975089;28;20401;-86
2023/10/07 12:25:49;;;;;;;10.20;4.70;;;19.10;99.90;;;;;;4973575;28;20042;-83
2023/10/07 12:28:14;;;;;;;12.32;4.85;;;19.00;99.90;;;;;;4957545;28;20074;-85
2023/10/07 12:30:40;;;;;;;15.70;5.00;;;19.00;99.90;;;;;;4957324;28;20039;-84
2023/10/07 12:33:08;;;;;;;13.05;5.47;;;19.00;99.90;;;;;;4955778;28;20375;-83
2023/10/07 12:35:34;;;;;;;12.80;4.80;;;19.00;99.90;;;;;;4957997;28;20542;-85
2023/10/07 12:38:01;;;;;;;16.55;5.13;;;19.10;99.90;;;;;;4970252;28;20194;-86
2023/10/07 12:40:30;;;;;;;11.85;4.95;;;19.20;99.90;;;;;;4953699;28;20061;-84
2023/10/07 12:42:56;;;;;;;14.70;5.35;;;19.30;99.90;;;;;;4947821;28;20047;-84
2023/10/07 12:45:23;;;;;;;11.35;5.60;;;19.20;99.90;;;;;;4956445;28;20042;-84
2023/10/07 12:48:04;;;;;;;12.07;5.05;;;19.20;99.90;;;;;;4958377;28;20046;-85
2023/10/07 12:50:30;;;;;;;11.85;4.90;;;19.10;99.90;;;;;;4957553;28;20101;-83
2023/10/07 12:53:10;;;;;;;12.02;4.93;;;19.10;99.90;;;;;;4956466;28;20050;-85
2023/10/07 12:55:37;;;;;;;11.30;4.78;;;19.10;99.90;;;;;;4951213;28;20078;-83
2023/10/07 12:58:06;;;;;;;14.45;5.57;;;19.00;99.90;;;;;;4957177;28;20130;-84
2023/10/07 13:00:36;;;;;;;13.02;4.75;;;19.10;99.90;;;;;;4957211;28;20051;-83
2023/10/07 13:03:05;;;;;;;19.95;5.38;;;19.30;99.90;;;;;;4974208;28;20074;-83
2023/10/07 13:05:38;;;;;;;13.50;4.97;;;19.30;99.90;;;;;;4956662;28;20043;-83
2023/10/07 13:08:11;;;;;;;12.23;4.82;;;19.30;99.90;;;;;;4956721;28;20130;-83
2023/10/07 13:10:38;;;;;;;15.23;5.57;;;19.50;99.90;;;;;;4970810;28;20034;-85
2023/10/07 13:13:05;;;;;;;13.90;5.35;;;19.60;99.90;;;;;;4956642;28;20049;-82
2023/10/07 13:15:30;;;;;;;15.73;5.13;;;19.70;99.90;;;;;;4955233;28;20039;-83
2023/10/07 13:18:01;;;;;;;13.95;5.43;;;19.70;99.90;;;;;;4973344;28;20778;-84
2023/10/07 13:20:27;;;;;;;10.05;5.03;;;19.70;99.90;;;;;;4973042;28;20108;-82
2023/10/07 13:22:55;;;;;;;9.68;4.57;;;19.80;99.90;;;;;;4972171;28;20046;-85
2023/10/07 13:25:21;;;;;;;14.75;5.72;;;19.70;99.90;;;;;;4956309;28;20042;-84
2023/10/07 13:27:48;;;;;;;12.45;4.85;;;19.60;99.90;;;;;;4972109;28;20069;-83
2023/10/07 13:30:16;;;;;;;13.10;5.40;;;19.50;99.90;;;;;;4959453;28;20113;-82
2023/10/07 13:32:46;;;;;;;11.48;4.95;;;19.50;99.90;;;;;;4956906;28;20046;-83
2023/10/07 13:35:17;;;;;;;14.27;4.97;;;19.40;99.90;;;;;;4941484;28;20046;-83
2023/10/07 13:37:44;;;;;;;10.48;5.00;;;19.40;99.90;;;;;;4972643;28;20519;-83
2023/10/07 13:40:15;;;;;;;10.38;4.80;;;19.40;99.90;;;;;;4954099;28;20055;-85